Genk, Belgium
Current Conditions -  °F | °C
As of 4:55 AM on Wednesday 22 Oct 2014 (Local Time) from EHBK Reporting Station
Moderate Rain Moderate Rain  
Wind Chill: 40°   Ceiling: 1800
Heat Index: 45°   Visibility: 6mi
Dew Point: 41°   Wind: 9mph
Humidity: 87%   Direction: 270°W
Pressure: 29.97"   Gusts: NA
Location:  50.97°N, 5.5°E
Report Text: EHBK 220255Z AUTO 27008KT 190V330 9999 DZRA SCT015CB BKN018BKN033 07/05 Q1015
Loading
Personal Weather Stations






























Interactive Weather Map
Tropical Storm Tracking
New forecast layout! Learn more

10-Day Weather Forecast

Advertisements
Track Severe Weather on mobile